sensor_id;sensor_type;location;lat;lon;timestamp;temperature;humidity
36652;DHT22;53334;51.976;20.144;2023-01-19T00:02:05;25.60;51.10
36652;DHT22;53334;51.976;20.144;2023-01-19T00:04:41;25.60;51.00
36652;DHT22;53334;51.976;20.144;2023-01-19T00:07:16;25.60;51.60
36652;DHT22;53334;51.976;20.144;2023-01-19T00:09:49;25.60;52.10
36652;DHT22;53334;51.976;20.144;2023-01-19T00:12:23;25.60;52.40
36652;DHT22;53334;51.976;20.144;2023-01-19T00:14:56;25.50;52.50
36652;DHT22;53334;51.976;20.144;2023-01-19T00:17:30;25.60;52.70
36652;DHT22;53334;51.976;20.144;2023-01-19T00:20:06;25.60;52.90
36652;DHT22;53334;51.976;20.144;2023-01-19T00:22:39;25.50;52.90
36652;DHT22;53334;51.976;20.144;2023-01-19T00:25:13;25.60;53.20
36652;DHT22;53334;51.976;20.144;2023-01-19T00:27:46;25.60;53.00
36652;DHT22;53334;51.976;20.144;2023-01-19T00:30:21;25.60;53.00
36652;DHT22;53334;51.976;20.144;2023-01-19T00:32:55;25.60;53.10
36652;DHT22;53334;51.976;20.144;2023-01-19T00:35:30;25.60;53.10
36652;DHT22;53334;51.976;20.144;2023-01-19T00:38:04;25.60;53.00
36652;DHT22;53334;51.976;20.144;2023-01-19T00:40:37;25.60;53.00
36652;DHT22;53334;51.976;20.144;2023-01-19T00:43:11;25.60;53.10
36652;DHT22;53334;51.976;20.144;2023-01-19T00:45:44;25.60;53.20
36652;DHT22;53334;51.976;20.144;2023-01-19T00:48:18;25.60;53.10
36652;DHT22;53334;51.976;20.144;2023-01-19T00:50:52;25.60;53.00
36652;DHT22;53334;51.976;20.144;2023-01-19T00:53:26;25.60;52.90
36652;DHT22;53334;51.976;20.144;2023-01-19T00:56:03;25.50;52.70
36652;DHT22;53334;51.976;20.144;2023-01-19T00:58:36;25.50;52.70
36652;DHT22;53334;51.976;20.144;2023-01-19T01:01:10;25.50;52.50
36652;DHT22;53334;51.976;20.144;2023-01-19T01:03:43;25.50;52.60
36652;DHT22;53334;51.976;20.144;2023-01-19T01:06:18;25.50;52.50
36652;DHT22;53334;51.976;20.144;2023-01-19T01:08:52;25.50;52.50
36652;DHT22;53334;51.976;20.144;2023-01-19T01:11:25;25.50;52.50
36652;DHT22;53334;51.976;20.144;2023-01-19T01:13:58;25.50;52.40
36652;DHT22;53334;51.976;20.144;2023-01-19T01:16:32;25.50;52.30
36652;DHT22;53334;51.976;20.144;2023-01-19T01:19:05;25.50;52.40
36652;DHT22;53334;51.976;20.144;2023-01-19T01:21:40;25.50;52.40
36652;DHT22;53334;51.976;20.144;2023-01-19T01:24:14;25.50;52.30
36652;DHT22;53334;51.976;20.144;2023-01-19T01:26:47;25.50;52.30
36652;DHT22;53334;51.976;20.144;2023-01-19T01:29:21;25.50;52.30
36652;DHT22;53334;51.976;20.144;2023-01-19T01:31:54;25.50;52.20
36652;DHT22;53334;51.976;20.144;2023-01-19T01:34:28;25.50;52.20
36652;DHT22;53334;51.976;20.144;2023-01-19T01:37:02;25.40;52.10
36652;DHT22;53334;51.976;20.144;2023-01-19T01:39:39;25.40;52.60
36652;DHT22;53334;51.976;20.144;2023-01-19T01:42:15;25.40;52.10
36652;DHT22;53334;51.976;20.144;2023-01-19T01:44:51;25.40;52.20
36652;DHT22;53334;51.976;20.144;2023-01-19T01:47:30;25.40;52.10
36652;DHT22;53334;51.976;20.144;2023-01-19T01:50:08;25.40;52.10
36652;DHT22;53334;51.976;20.144;2023-01-19T01:52:46;25.40;52.20
36652;DHT22;53334;51.976;20.144;2023-01-19T01:55:40;25.50;52.30
36652;DHT22;53334;51.976;20.144;2023-01-19T01:58:17;25.40;52.30
36652;DHT22;53334;51.976;20.144;2023-01-19T02:00:51;25.40;52.20
36652;DHT22;53334;51.976;20.144;2023-01-19T02:03:41;25.40;52.20
36652;DHT22;53334;51.976;20.144;2023-01-19T02:06:15;25.40;52.10
36652;DHT22;53334;51.976;20.144;2023-01-19T02:08:53;25.40;52.10
36652;DHT22;53334;51.976;20.144;2023-01-19T02:11:46;25.40;52.20
36652;DHT22;53334;51.976;20.144;2023-01-19T02:14:37;25.40;52.10
36652;DHT22;53334;51.976;20.144;2023-01-19T02:17:10;25.40;52.20
36652;DHT22;53334;51.976;20.144;2023-01-19T02:19:44;25.40;52.20
36652;DHT22;53334;51.976;20.144;2023-01-19T02:22:21;25.40;52.20
36652;DHT22;53334;51.976;20.144;2023-01-19T02:24:58;25.40;52.30
36652;DHT22;53334;51.976;20.144;2023-01-19T02:27:32;25.40;52.30
36652;DHT22;53334;51.976;20.144;2023-01-19T02:30:09;25.40;52.30
36652;DHT22;53334;51.976;20.144;2023-01-19T02:32:43;25.40;52.30
36652;DHT22;53334;51.976;20.144;2023-01-19T02:35:20;25.40;52.40
36652;DHT22;53334;51.976;20.144;2023-01-19T02:37:54;25.40;52.40
36652;DHT22;53334;51.976;20.144;2023-01-19T02:40:29;25.40;52.50
36652;DHT22;53334;51.976;20.144;2023-01-19T02:43:04;25.30;52.30
36652;DHT22;53334;51.976;20.144;2023-01-19T02:45:39;25.30;52.40
36652;DHT22;53334;51.976;20.144;2023-01-19T02:48:15;25.40;52.50
36652;DHT22;53334;51.976;20.144;2023-01-19T02:50:51;25.30;52.40
36652;DHT22;53334;51.976;20.144;2023-01-19T02:56:47;25.30;52.30
36652;DHT22;53334;51.976;20.144;2023-01-19T02:59:31;25.30;52.30
36652;DHT22;53334;51.976;20.144;2023-01-19T03:02:17;25.30;52.30
36652;DHT22;53334;51.976;20.144;2023-01-19T03:04:58;25.30;52.40
36652;DHT22;53334;51.976;20.144;2023-01-19T03:07:47;25.30;52.30
36652;DHT22;53334;51.976;20.144;2023-01-19T03:10:29;25.30;52.40
36652;DHT22;53334;51.976;20.144;2023-01-19T03:13:10;25.30;52.50
36652;DHT22;53334;51.976;20.144;2023-01-19T03:15:49;25.30;52.50
36652;DHT22;53334;51.976;20.144;2023-01-19T03:18:26;25.30;52.50
36652;DHT22;53334;51.976;20.144;2023-01-19T03:21:05;25.30;52.50
36652;DHT22;53334;51.976;20.144;2023-01-19T03:23:40;25.30;52.60
36652;DHT22;53334;51.976;20.144;2023-01-19T03:26:18;25.30;52.60
36652;DHT22;53334;51.976;20.144;2023-01-19T03:28:53;25.30;52.60
36652;DHT22;53334;51.976;20.144;2023-01-19T03:31:28;25.30;52.50
36652;DHT22;53334;51.976;20.144;2023-01-19T03:34:07;25.30;52.50
36652;DHT22;53334;51.976;20.144;2023-01-19T03:36:43;25.30;52.50
36652;DHT22;53334;51.976;20.144;2023-01-19T03:39:21;25.30;52.40
36652;DHT22;53334;51.976;20.144;2023-01-19T03:41:57;25.30;52.40
36652;DHT22;53334;51.976;20.144;2023-01-19T03:44:36;25.30;52.40
36652;DHT22;53334;51.976;20.144;2023-01-19T03:47:10;25.30;52.40
36652;DHT22;53334;51.976;20.144;2023-01-19T03:49:45;25.30;52.40
36652;DHT22;53334;51.976;20.144;2023-01-19T03:52:27;25.30;52.40
36652;DHT22;53334;51.976;20.144;2023-01-19T03:55:02;25.30;52.40
36652;DHT22;53334;51.976;20.144;2023-01-19T03:57:36;25.30;52.40
36652;DHT22;53334;51.976;20.144;2023-01-19T04:00:13;25.30;52.50
36652;DHT22;53334;51.976;20.144;2023-01-19T04:02:46;25.30;52.50
36652;DHT22;53334;51.976;20.144;2023-01-19T04:05:19;25.30;52.50
36652;DHT22;53334;51.976;20.144;2023-01-19T04:07:53;25.30;52.50
36652;DHT22;53334;51.976;20.144;2023-01-19T04:10:26;25.30;52.50
36652;DHT22;53334;51.976;20.144;2023-01-19T04:13:00;25.30;52.50
36652;DHT22;53334;51.976;20.144;2023-01-19T04:15:35;25.30;52.50
36652;DHT22;53334;51.976;20.144;2023-01-19T04:18:09;25.30;52.40
36652;DHT22;53334;51.976;20.144;2023-01-19T04:20:43;25.30;52.40
36652;DHT22;53334;51.976;20.144;2023-01-19T04:23:16;25.30;52.40
36652;DHT22;53334;51.976;20.144;2023-01-19T04:25:49;25.30;52.40
36652;DHT22;53334;51.976;20.144;2023-01-19T04:28:23;25.30;52.40
36652;DHT22;53334;51.976;20.144;2023-01-19T04:30:57;25.30;52.40
36652;DHT22;53334;51.976;20.144;2023-01-19T04:33:31;25.30;52.40
36652;DHT22;53334;51.976;20.144;2023-01-19T04:36:05;25.30;52.40
36652;DHT22;53334;51.976;20.144;2023-01-19T04:38:39;25.30;52.40
36652;DHT22;53334;51.976;20.144;2023-01-19T04:41:13;25.30;52.40
36652;DHT22;53334;51.976;20.144;2023-01-19T04:43:46;25.30;52.40
36652;DHT22;53334;51.976;20.144;2023-01-19T04:46:21;25.30;52.40
36652;DHT22;53334;51.976;20.144;2023-01-19T04:48:54;25.30;52.50
36652;DHT22;53334;51.976;20.144;2023-01-19T04:51:27;25.30;52.50
36652;DHT22;53334;51.976;20.144;2023-01-19T04:54:01;25.30;52.50
36652;DHT22;53334;51.976;20.144;2023-01-19T04:56:35;25.30;52.50
36652;DHT22;53334;51.976;20.144;2023-01-19T04:59:09;25.30;52.40
36652;DHT22;53334;51.976;20.144;2023-01-19T05:01:43;25.30;52.40
36652;DHT22;53334;51.976;20.144;2023-01-19T05:04:17;25.30;52.30
36652;DHT22;53334;51.976;20.144;2023-01-19T05:06:50;25.30;52.30
36652;DHT22;53334;51.976;20.144;2023-01-19T05:09:25;25.30;52.30
36652;DHT22;53334;51.976;20.144;2023-01-19T05:11:58;25.30;52.30
36652;DHT22;53334;51.976;20.144;2023-01-19T05:14:32;25.30;52.30
36652;DHT22;53334;51.976;20.144;2023-01-19T05:17:06;25.30;52.30
36652;DHT22;53334;51.976;20.144;2023-01-19T05:19:40;25.30;52.30
36652;DHT22;53334;51.976;20.144;2023-01-19T05:22:13;25.30;52.30
36652;DHT22;53334;51.976;20.144;2023-01-19T05:24:46;25.30;52.40
36652;DHT22;53334;51.976;20.144;2023-01-19T05:27:20;25.30;52.40
36652;DHT22;53334;51.976;20.144;2023-01-19T05:29:53;25.30;52.40
36652;DHT22;53334;51.976;20.144;2023-01-19T05:32:28;25.30;52.30
36652;DHT22;53334;51.976;20.144;2023-01-19T05:35:01;25.30;52.30
36652;DHT22;53334;51.976;20.144;2023-01-19T05:37:34;25.30;52.30
36652;DHT22;53334;51.976;20.144;2023-01-19T05:40:09;25.30;52.40
36652;DHT22;53334;51.976;20.144;2023-01-19T05:42:42;25.20;52.30
36652;DHT22;53334;51.976;20.144;2023-01-19T05:45:16;25.30;52.30
36652;DHT22;53334;51.976;20.144;2023-01-19T05:47:51;25.20;52.20
36652;DHT22;53334;51.976;20.144;2023-01-19T05:50:25;25.30;52.20
36652;DHT22;53334;51.976;20.144;2023-01-19T05:52:59;25.30;52.20
36652;DHT22;53334;51.976;20.144;2023-01-19T05:55:33;25.30;52.20
36652;DHT22;53334;51.976;20.144;2023-01-19T05:58:06;25.30;52.10
36652;DHT22;53334;51.976;20.144;2023-01-19T06:00:39;25.20;52.10
36652;DHT22;53334;51.976;20.144;2023-01-19T06:03:14;25.30;52.10
36652;DHT22;53334;51.976;20.144;2023-01-19T06:05:47;25.20;52.10
36652;DHT22;53334;51.976;20.144;2023-01-19T06:08:21;25.20;52.10
36652;DHT22;53334;51.976;20.144;2023-01-19T06:10:54;25.30;52.20
36652;DHT22;53334;51.976;20.144;2023-01-19T06:13:28;25.20;52.10
36652;DHT22;53334;51.976;20.144;2023-01-19T06:16:01;25.30;52.20
36652;DHT22;53334;51.976;20.144;2023-01-19T06:18:36;25.20;52.20
36652;DHT22;53334;51.976;20.144;2023-01-19T06:21:10;25.30;52.30
36652;DHT22;53334;51.976;20.144;2023-01-19T06:23:45;25.20;52.20
36652;DHT22;53334;51.976;20.144;2023-01-19T06:26:18;25.30;52.20
36652;DHT22;53334;51.976;20.144;2023-01-19T06:28:52;25.20;52.20
36652;DHT22;53334;51.976;20.144;2023-01-19T06:31:25;25.30;52.20
36652;DHT22;53334;51.976;20.144;2023-01-19T06:34:00;25.20;52.30
36652;DHT22;53334;51.976;20.144;2023-01-19T06:36:33;25.30;52.50
36652;DHT22;53334;51.976;20.144;2023-01-19T06:39:08;25.20;52.50
36652;DHT22;53334;51.976;20.144;2023-01-19T06:41:41;25.30;52.50
36652;DHT22;53334;51.976;20.144;2023-01-19T06:44:15;25.30;52.50
36652;DHT22;53334;51.976;20.144;2023-01-19T06:46:48;25.30;52.50
36652;DHT22;53334;51.976;20.144;2023-01-19T06:49:23;25.30;52.60
36652;DHT22;53334;51.976;20.144;2023-01-19T06:51:57;25.30;52.50
36652;DHT22;53334;51.976;20.144;2023-01-19T06:54:30;25.30;52.50
36652;DHT22;53334;51.976;20.144;2023-01-19T06:57:04;25.40;52.60
36652;DHT22;53334;51.976;20.144;2023-01-19T06:59:37;25.40;52.70
36652;DHT22;53334;51.976;20.144;2023-01-19T07:02:10;25.30;52.60
36652;DHT22;53334;51.976;20.144;2023-01-19T07:05:00;25.30;52.70
36652;DHT22;53334;51.976;20.144;2023-01-19T07:07:34;25.30;52.70
36652;DHT22;53334;51.976;20.144;2023-01-19T07:10:08;25.30;52.70
36652;DHT22;53334;51.976;20.144;2023-01-19T07:12:42;25.30;52.80
36652;DHT22;53334;51.976;20.144;2023-01-19T07:15:19;25.30;52.50
36652;DHT22;53334;51.976;20.144;2023-01-19T07:17:56;25.40;52.60
36652;DHT22;53334;51.976;20.144;2023-01-19T07:20:32;25.30;52.30
36652;DHT22;53334;51.976;20.144;2023-01-19T07:23:05;25.30;52.50
36652;DHT22;53334;51.976;20.144;2023-01-19T07:25:38;25.40;52.40
36652;DHT22;53334;51.976;20.144;2023-01-19T07:28:12;25.30;52.50
36652;DHT22;53334;51.976;20.144;2023-01-19T07:30:50;25.40;52.60
36652;DHT22;53334;51.976;20.144;2023-01-19T07:33:23;25.40;52.80
36652;DHT22;53334;51.976;20.144;2023-01-19T07:35:58;25.40;52.80
36652;DHT22;53334;51.976;20.144;2023-01-19T07:38:56;25.40;53.00
36652;DHT22;53334;51.976;20.144;2023-01-19T07:41:30;25.40;53.50
36652;DHT22;53334;51.976;20.144;2023-01-19T07:44:03;25.40;53.70
36652;DHT22;53334;51.976;20.144;2023-01-19T07:46:37;25.40;53.70
36652;DHT22;53334;51.976;20.144;2023-01-19T07:49:10;25.40;54.10
36652;DHT22;53334;51.976;20.144;2023-01-19T07:51:46;25.40;54.00
36652;DHT22;53334;51.976;20.144;2023-01-19T07:54:19;25.40;54.10
36652;DHT22;53334;51.976;20.144;2023-01-19T07:56:53;25.40;50.10
36652;DHT22;53334;51.976;20.144;2023-01-19T07:59:26;25.30;38.60
36652;DHT22;53334;51.976;20.144;2023-01-19T08:02:01;25.20;33.90
36652;DHT22;53334;51.976;20.144;2023-01-19T08:04:34;25.00;31.90
36652;DHT22;53334;51.976;20.144;2023-01-19T08:07:09;24.90;31.10
36652;DHT22;53334;51.976;20.144;2023-01-19T08:09:43;24.80;30.80
36652;DHT22;53334;51.976;20.144;2023-01-19T08:12:16;24.60;31.10
36652;DHT22;53334;51.976;20.144;2023-01-19T08:14:49;24.60;32.90
36652;DHT22;53334;51.976;20.144;2023-01-19T08:17:23;24.50;34.00
36652;DHT22;53334;51.976;20.144;2023-01-19T08:19:56;24.50;35.30
36652;DHT22;53334;51.976;20.144;2023-01-19T08:22:31;24.50;35.60
36652;DHT22;53334;51.976;20.144;2023-01-19T08:25:05;24.50;37.40
36652;DHT22;53334;51.976;20.144;2023-01-19T08:27:38;24.50;37.10
36652;DHT22;53334;51.976;20.144;2023-01-19T08:30:12;24.50;37.40
36652;DHT22;53334;51.976;20.144;2023-01-19T08:32:45;24.50;37.80
36652;DHT22;53334;51.976;20.144;2023-01-19T08:35:19;24.60;38.30
36652;DHT22;53334;51.976;20.144;2023-01-19T08:37:54;24.60;39.00
36652;DHT22;53334;51.976;20.144;2023-01-19T08:40:33;24.60;39.30
36652;DHT22;53334;51.976;20.144;2023-01-19T08:43:08;24.60;39.40
36652;DHT22;53334;51.976;20.144;2023-01-19T08:45:45;24.60;39.60
36652;DHT22;53334;51.976;20.144;2023-01-19T08:48:20;24.60;39.70
36652;DHT22;53334;51.976;20.144;2023-01-19T08:50:54;24.70;39.80
36652;DHT22;53334;51.976;20.144;2023-01-19T08:53:29;24.70;40.10
36652;DHT22;53334;51.976;20.144;2023-01-19T08:56:02;24.70;40.30
36652;DHT22;53334;51.976;20.144;2023-01-19T08:58:37;24.70;40.40
36652;DHT22;53334;51.976;20.144;2023-01-19T09:01:11;24.70;40.30
36652;DHT22;53334;51.976;20.144;2023-01-19T09:03:48;24.70;40.40
36652;DHT22;53334;51.976;20.144;2023-01-19T09:06:21;24.70;40.30
36652;DHT22;53334;51.976;20.144;2023-01-19T09:08:57;24.70;40.40
36652;DHT22;53334;51.976;20.144;2023-01-19T09:11:31;24.80;40.70
36652;DHT22;53334;51.976;20.144;2023-01-19T09:14:05;24.80;40.70
36652;DHT22;53334;51.976;20.144;2023-01-19T09:16:39;24.80;40.80
36652;DHT22;53334;51.976;20.144;2023-01-19T09:19:12;24.80;40.80
36652;DHT22;53334;51.976;20.144;2023-01-19T09:21:46;24.80;41.00
36652;DHT22;53334;51.976;20.144;2023-01-19T09:24:21;24.80;41.00
36652;DHT22;53334;51.976;20.144;2023-01-19T09:26:54;24.80;41.00
36652;DHT22;53334;51.976;20.144;2023-01-19T09:29:27;24.80;41.00
36652;DHT22;53334;51.976;20.144;2023-01-19T09:32:01;24.80;41.50
36652;DHT22;53334;51.976;20.144;2023-01-19T09:34:34;24.80;41.80
36652;DHT22;53334;51.976;20.144;2023-01-19T09:37:07;24.90;42.20
36652;DHT22;53334;51.976;20.144;2023-01-19T09:39:42;24.90;42.50
36652;DHT22;53334;51.976;20.144;2023-01-19T09:42:20;24.90;42.60
36652;DHT22;53334;51.976;20.144;2023-01-19T09:44:55;24.90;42.80
36652;DHT22;53334;51.976;20.144;2023-01-19T09:47:29;24.90;42.90
36652;DHT22;53334;51.976;20.144;2023-01-19T09:50:05;24.90;42.90
36652;DHT22;53334;51.976;20.144;2023-01-19T09:52:46;24.90;43.10
36652;DHT22;53334;51.976;20.144;2023-01-19T09:55:27;24.90;43.30
36652;DHT22;53334;51.976;20.144;2023-01-19T09:58:00;24.90;43.30
36652;DHT22;53334;51.976;20.144;2023-01-19T10:00:35;24.90;43.50
36652;DHT22;53334;51.976;20.144;2023-01-19T10:03:14;24.90;43.70
36652;DHT22;53334;51.976;20.144;2023-01-19T10:05:51;24.90;43.70
36652;DHT22;53334;51.976;20.144;2023-01-19T10:08:32;24.90;43.70
36652;DHT22;53334;51.976;20.144;2023-01-19T10:11:24;24.90;43.80
36652;DHT22;53334;51.976;20.144;2023-01-19T10:14:21;24.90;43.80
36652;DHT22;53334;51.976;20.144;2023-01-19T10:17:04;24.90;44.00
36652;DHT22;53334;51.976;20.144;2023-01-19T10:19:42;24.90;44.20
36652;DHT22;53334;51.976;20.144;2023-01-19T10:22:20;24.90;44.20
36652;DHT22;53334;51.976;20.144;2023-01-19T10:24:55;24.90;44.30
36652;DHT22;53334;51.976;20.144;2023-01-19T10:27:32;25.00;44.40
36652;DHT22;53334;51.976;20.144;2023-01-19T10:30:08;24.90;44.60
36652;DHT22;53334;51.976;20.144;2023-01-19T10:32:47;25.00;44.80
36652;DHT22;53334;51.976;20.144;2023-01-19T10:35:22;25.00;44.80
36652;DHT22;53334;51.976;20.144;2023-01-19T10:37:59;24.90;44.90
36652;DHT22;53334;51.976;20.144;2023-01-19T10:40:36;25.00;45.10
36652;DHT22;53334;51.976;20.144;2023-01-19T10:43:36;25.00;45.20
36652;DHT22;53334;51.976;20.144;2023-01-19T10:46:21;25.00;45.10
36652;DHT22;53334;51.976;20.144;2023-01-19T10:48:55;25.00;45.30
36652;DHT22;53334;51.976;20.144;2023-01-19T10:51:28;25.00;45.30
36652;DHT22;53334;51.976;20.144;2023-01-19T10:54:03;25.00;45.30
36652;DHT22;53334;51.976;20.144;2023-01-19T10:56:37;25.00;45.50
36652;DHT22;53334;51.976;20.144;2023-01-19T10:59:30;25.00;46.20
36652;DHT22;53334;51.976;20.144;2023-01-19T11:02:16;25.00;46.40
36652;DHT22;53334;51.976;20.144;2023-01-19T11:04:51;25.00;46.70
36652;DHT22;53334;51.976;20.144;2023-01-19T11:07:28;25.00;46.60
36652;DHT22;53334;51.976;20.144;2023-01-19T11:10:19;25.00;46.80
36652;DHT22;53334;51.976;20.144;2023-01-19T11:12:59;25.00;46.80
36652;DHT22;53334;51.976;20.144;2023-01-19T11:15:40;25.00;46.80
36652;DHT22;53334;51.976;20.144;2023-01-19T11:18:22;25.00;46.60
36652;DHT22;53334;51.976;20.144;2023-01-19T11:20:59;25.00;46.60
36652;DHT22;53334;51.976;20.144;2023-01-19T11:23:34;25.00;46.70
36652;DHT22;53334;51.976;20.144;2023-01-19T11:26:15;25.00;46.60
36652;DHT22;53334;51.976;20.144;2023-01-19T11:28:57;25.00;46.60
36652;DHT22;53334;51.976;20.144;2023-01-19T11:31:34;25.00;46.60
36652;DHT22;53334;51.976;20.144;2023-01-19T11:34:23;25.00;46.60
36652;DHT22;53334;51.976;20.144;2023-01-19T11:36:59;25.00;46.50
36652;DHT22;53334;51.976;20.144;2023-01-19T11:39:45;25.00;46.70
36652;DHT22;53334;51.976;20.144;2023-01-19T11:42:19;24.90;46.60
36652;DHT22;53334;51.976;20.144;2023-01-19T11:44:56;24.90;46.70
36652;DHT22;53334;51.976;20.144;2023-01-19T11:47:35;24.90;46.40
36652;DHT22;53334;51.976;20.144;2023-01-19T11:50:20;24.90;46.80
36652;DHT22;53334;51.976;20.144;2023-01-19T11:52:58;24.90;46.40
36652;DHT22;53334;51.976;20.144;2023-01-19T11:55:36;24.90;46.50
36652;DHT22;53334;51.976;20.144;2023-01-19T11:58:13;24.90;46.40
36652;DHT22;53334;51.976;20.144;2023-01-19T12:00:50;24.90;46.10
36652;DHT22;53334;51.976;20.144;2023-01-19T12:03:29;24.90;45.70
36652;DHT22;53334;51.976;20.144;2023-01-19T12:06:06;24.90;45.20
36652;DHT22;53334;51.976;20.144;2023-01-19T12:08:46;24.80;44.90
36652;DHT22;53334;51.976;20.144;2023-01-19T12:11:24;24.80;44.50
36652;DHT22;53334;51.976;20.144;2023-01-19T12:13:59;24.80;44.20
36652;DHT22;53334;51.976;20.144;2023-01-19T12:16:33;24.80;43.90
36652;DHT22;53334;51.976;20.144;2023-01-19T12:19:15;24.80;44.30
36652;DHT22;53334;51.976;20.144;2023-01-19T12:21:50;24.80;43.70
36652;DHT22;53334;51.976;20.144;2023-01-19T12:24:28;24.80;43.40
36652;DHT22;53334;51.976;20.144;2023-01-19T12:27:09;24.80;43.40
36652;DHT22;53334;51.976;20.144;2023-01-19T12:29:47;24.80;43.30
36652;DHT22;53334;51.976;20.144;2023-01-19T12:32:32;24.80;43.10
36652;DHT22;53334;51.976;20.144;2023-01-19T12:38:41;24.80;43.00
36652;DHT22;53334;51.976;20.144;2023-01-19T12:41:22;24.70;42.70
36652;DHT22;53334;51.976;20.144;2023-01-19T12:44:19;24.70;42.40
36652;DHT22;53334;51.976;20.144;2023-01-19T12:46:54;24.70;42.00
36652;DHT22;53334;51.976;20.144;2023-01-19T12:49:31;24.70;42.00
36652;DHT22;53334;51.976;20.144;2023-01-19T12:52:24;24.70;42.10
36652;DHT22;53334;51.976;20.144;2023-01-19T12:55:02;24.70;42.90
36652;DHT22;53334;51.976;20.144;2023-01-19T12:57:45;24.70;43.10
36652;DHT22;53334;51.976;20.144;2023-01-19T13:00:37;24.70;43.90
36652;DHT22;53334;51.976;20.144;2023-01-19T13:03:44;24.80;44.50
36652;DHT22;53334;51.976;20.144;2023-01-19T13:06:17;24.80;44.70
36652;DHT22;53334;51.976;20.144;2023-01-19T13:09:01;24.80;44.80
36652;DHT22;53334;51.976;20.144;2023-01-19T13:11:35;24.80;45.10
36652;DHT22;53334;51.976;20.144;2023-01-19T13:14:35;24.80;45.20
36652;DHT22;53334;51.976;20.144;2023-01-19T13:17:24;24.80;45.30
36652;DHT22;53334;51.976;20.144;2023-01-19T13:20:22;24.80;45.60
36652;DHT22;53334;51.976;20.144;2023-01-19T13:23:15;24.90;45.80
36652;DHT22;53334;51.976;20.144;2023-01-19T13:26:00;24.90;45.80
36652;DHT22;53334;51.976;20.144;2023-01-19T13:28:38;24.90;45.70
36652;DHT22;53334;51.976;20.144;2023-01-19T13:31:13;24.90;45.70
36652;DHT22;53334;51.976;20.144;2023-01-19T13:33:49;24.90;45.80
36652;DHT22;53334;51.976;20.144;2023-01-19T13:36:27;25.00;45.90
36652;DHT22;53334;51.976;20.144;2023-01-19T13:39:04;25.00;46.00
36652;DHT22;53334;51.976;20.144;2023-01-19T13:41:40;25.00;46.00
36652;DHT22;53334;51.976;20.144;2023-01-19T13:44:19;25.00;46.10
36652;DHT22;53334;51.976;20.144;2023-01-19T13:46:55;25.00;46.00
36652;DHT22;53334;51.976;20.144;2023-01-19T13:49:33;25.00;46.10
36652;DHT22;53334;51.976;20.144;2023-01-19T13:52:11;25.00;46.20
36652;DHT22;53334;51.976;20.144;2023-01-19T13:54:49;25.00;46.10
36652;DHT22;53334;51.976;20.144;2023-01-19T13:57:27;25.00;46.20
36652;DHT22;53334;51.976;20.144;2023-01-19T14:00:06;25.00;46.20
36652;DHT22;53334;51.976;20.144;2023-01-19T14:02:52;25.00;46.30
36652;DHT22;53334;51.976;20.144;2023-01-19T14:05:28;25.00;46.40
36652;DHT22;53334;51.976;20.144;2023-01-19T14:08:04;25.00;46.90
36652;DHT22;53334;51.976;20.144;2023-01-19T14:10:40;25.10;46.40
36652;DHT22;53334;51.976;20.144;2023-01-19T14:13:17;25.00;46.30
36652;DHT22;53334;51.976;20.144;2023-01-19T14:15:52;25.10;46.30
36652;DHT22;53334;51.976;20.144;2023-01-19T14:18:28;25.00;45.90
36652;DHT22;53334;51.976;20.144;2023-01-19T14:21:05;25.10;45.80
36652;DHT22;53334;51.976;20.144;2023-01-19T14:23:44;25.10;45.60
36652;DHT22;53334;51.976;20.144;2023-01-19T14:26:47;25.10;45.40
36652;DHT22;53334;51.976;20.144;2023-01-19T14:29:26;25.10;44.90
36652;DHT22;53334;51.976;20.144;2023-01-19T14:32:09;25.10;44.70
36652;DHT22;53334;51.976;20.144;2023-01-19T14:34:44;25.10;44.60
36652;DHT22;53334;51.976;20.144;2023-01-19T14:37:24;25.10;44.50
36652;DHT22;53334;51.976;20.144;2023-01-19T14:40:00;25.00;44.20
36652;DHT22;53334;51.976;20.144;2023-01-19T14:42:43;25.00;44.20
36652;DHT22;53334;51.976;20.144;2023-01-19T14:45:21;25.00;43.60
36652;DHT22;53334;51.976;20.144;2023-01-19T14:47:57;25.00;43.40
36652;DHT22;53334;51.976;20.144;2023-01-19T14:50:33;25.00;43.40
36652;DHT22;53334;51.976;20.144;2023-01-19T14:53:13;25.00;43.50
36652;DHT22;53334;51.976;20.144;2023-01-19T14:55:49;25.10;43.50
36652;DHT22;53334;51.976;20.144;2023-01-19T14:58:25;25.10;43.50
36652;DHT22;53334;51.976;20.144;2023-01-19T15:01:00;25.10;43.50
36652;DHT22;53334;51.976;20.144;2023-01-19T15:03:34;25.10;43.60
36652;DHT22;53334;51.976;20.144;2023-01-19T15:06:18;25.10;43.60
36652;DHT22;53334;51.976;20.144;2023-01-19T15:08:53;25.20;43.90
36652;DHT22;53334;51.976;20.144;2023-01-19T15:11:30;25.10;43.60
36652;DHT22;53334;51.976;20.144;2023-01-19T15:14:04;25.10;43.60
36652;DHT22;53334;51.976;20.144;2023-01-19T15:16:39;25.10;43.70
36652;DHT22;53334;51.976;20.144;2023-01-19T15:19:14;25.10;43.90
36652;DHT22;53334;51.976;20.144;2023-01-19T15:21:47;25.10;44.20
36652;DHT22;53334;51.976;20.144;2023-01-19T15:24:21;25.10;44.40
36652;DHT22;53334;51.976;20.144;2023-01-19T15:26:54;25.20;44.60
36652;DHT22;53334;51.976;20.144;2023-01-19T15:29:32;25.10;44.80
36652;DHT22;53334;51.976;20.144;2023-01-19T15:32:12;25.10;45.00
36652;DHT22;53334;51.976;20.144;2023-01-19T15:34:45;25.10;45.20
36652;DHT22;53334;51.976;20.144;2023-01-19T15:37:19;25.10;45.40
36652;DHT22;53334;51.976;20.144;2023-01-19T15:39:52;25.20;45.40
36652;DHT22;53334;51.976;20.144;2023-01-19T15:42:25;25.20;45.50
36652;DHT22;53334;51.976;20.144;2023-01-19T15:44:59;25.20;45.60
36652;DHT22;53334;51.976;20.144;2023-01-19T15:47:33;25.20;45.60
36652;DHT22;53334;51.976;20.144;2023-01-19T15:50:08;25.20;45.70
36652;DHT22;53334;51.976;20.144;2023-01-19T15:52:41;25.20;45.70
36652;DHT22;53334;51.976;20.144;2023-01-19T15:55:15;25.20;46.30
36652;DHT22;53334;51.976;20.144;2023-01-19T15:57:48;25.20;46.30
36652;DHT22;53334;51.976;20.144;2023-01-19T16:00:22;25.20;46.40
36652;DHT22;53334;51.976;20.144;2023-01-19T16:02:57;25.20;47.10
36652;DHT22;53334;51.976;20.144;2023-01-19T16:05:30;25.20;46.90
36652;DHT22;53334;51.976;20.144;2023-01-19T16:08:14;25.20;47.20
36652;DHT22;53334;51.976;20.144;2023-01-19T16:10:47;25.20;47.80
36652;DHT22;53334;51.976;20.144;2023-01-19T16:13:21;25.10;47.20
36652;DHT22;53334;51.976;20.144;2023-01-19T16:15:54;25.20;47.80
36652;DHT22;53334;51.976;20.144;2023-01-19T16:18:29;25.10;47.70
36652;DHT22;53334;51.976;20.144;2023-01-19T16:21:03;25.10;47.80